Time;durP1;ratioP1;P1;durP2;ratioP2;P2;SDS_P1;SDS_P2;PMS_P1;PMS_P2;Temp;Humidity;BMP_temperature;BMP_pressure;BME280_temperature;BME280_humidity;BME280_pressure;Samples;Min_cycle;Max_cycle;Signal;HPM_P1;HPM_P2
2022/10/27 00:00:36;;;;;;;16.95;5.85;;;12.90;99.90;;;;;;5033726;28;20058;-63
2022/10/27 00:03:02;;;;;;;15.55;5.63;;;12.90;99.90;;;;;;5034131;28;20120;-64
2022/10/27 00:05:28;;;;;;;10.48;4.82;;;12.90;99.90;;;;;;5034189;28;20040;-63
2022/10/27 00:07:55;;;;;;;13.88;6.15;;;12.90;99.90;;;;;;5033347;28;20052;-63
2022/10/27 00:10:21;;;;;;;11.88;5.60;;;13.00;99.90;;;;;;5052540;28;20420;-63
2022/10/27 00:12:46;;;;;;;13.30;5.68;;;13.00;99.90;;;;;;5034129;28;20115;-63
2022/10/27 00:15:13;;;;;;;9.40;5.43;;;13.00;99.90;;;;;;5033675;28;20411;-63
2022/10/27 00:17:38;;;;;;;12.10;5.60;;;13.00;99.90;;;;;;5034134;28;20040;-63
2022/10/27 00:20:05;;;;;;;14.32;5.25;;;13.00;99.90;;;;;;5051702;28;20559;-63
2022/10/27 00:22:31;;;;;;;16.52;6.07;;;13.00;99.90;;;;;;5016715;28;20060;-63
2022/10/27 00:24:57;;;;;;;11.85;4.88;;;13.00;99.90;;;;;;5034087;28;20390;-63
2022/10/27 00:27:23;;;;;;;13.38;5.30;;;13.10;99.90;;;;;;5052294;28;20043;-63
2022/10/27 00:29:48;;;;;;;20.83;4.95;;;13.10;99.90;;;;;;5033113;28;20086;-63
2022/10/27 00:32:14;;;;;;;15.00;5.40;;;13.10;99.90;;;;;;5051982;28;20478;-63
2022/10/27 00:34:40;;;;;;;13.75;5.00;;;13.10;99.90;;;;;;5033863;28;20116;-63
2022/10/27 00:37:05;;;;;;;18.77;5.47;;;13.10;99.90;;;;;;5050719;28;20087;-63
2022/10/27 00:39:31;;;;;;;11.55;5.80;;;13.00;99.90;;;;;;5052102;28;20056;-63
2022/10/27 00:41:57;;;;;;;10.95;5.28;;;13.10;99.90;;;;;;5017375;28;20102;-63
2022/10/27 00:44:36;;;;;;;15.85;5.40;;;13.10;99.90;;;;;;5033447;28;20048;-63
2022/10/27 00:47:31;;;;;;;9.07;4.68;;;13.10;99.90;;;;;;5033864;28;20097;-63
2022/10/27 00:50:16;;;;;;;13.10;5.13;;;13.00;99.90;;;;;;5032883;28;20041;-63
2022/10/27 00:52:54;;;;;;;11.50;5.13;;;13.00;99.90;;;;;;5051651;28;20047;-63
2022/10/27 00:55:33;;;;;;;12.07;5.20;;;13.00;99.90;;;;;;5033992;28;20059;-63
2022/10/27 00:58:03;;;;;;;12.73;5.38;;;12.90;99.90;;;;;;5032863;28;20052;-63
2022/10/27 01:00:29;;;;;;;15.13;6.25;;;12.90;99.90;;;;;;5051853;28;20041;-63
2022/10/27 01:02:55;;;;;;;12.70;5.55;;;12.90;99.90;;;;;;5051196;28;20052;-63
2022/10/27 01:05:23;;;;;;;17.52;7.50;;;12.90;99.90;;;;;;5033079;28;20049;-63
2022/10/27 01:07:51;;;;;;;14.90;6.95;;;12.90;99.90;;;;;;5033499;28;20049;-63
2022/10/27 01:10:17;;;;;;;15.90;6.30;;;12.80;99.90;;;;;;5051620;28;20474;-63
2022/10/27 01:12:44;;;;;;;14.73;6.97;;;12.80;99.90;;;;;;5033001;28;20120;-63
2022/10/27 01:15:10;;;;;;;15.07;6.32;;;12.80;99.90;;;;;;5033880;28;20055;-63
2022/10/27 01:17:51;;;;;;;10.82;6.13;;;12.80;99.90;;;;;;5033793;28;20399;-63
2022/10/27 01:20:44;;;;;;;13.63;6.53;;;12.80;99.90;;;;;;5033492;28;20052;-63
2022/10/27 01:23:28;;;;;;;16.67;6.95;;;12.80;99.90;;;;;;5033300;28;20060;-63
2022/10/27 01:26:15;;;;;;;11.60;6.22;;;12.70;99.90;;;;;;5032518;28;20049;-63
2022/10/27 01:29:02;;;;;;;14.18;6.60;;;12.70;99.90;;;;;;5033329;28;20095;-63
2022/10/27 01:31:33;;;;;;;15.10;5.97;;;12.60;99.90;;;;;;5037305;28;20045;-63
2022/10/27 01:34:28;;;;;;;10.70;6.20;;;12.60;99.90;;;;;;5054137;28;20052;-63
2022/10/27 01:37:11;;;;;;;14.32;6.97;;;12.60;99.90;;;;;;5016174;28;20132;-63
2022/10/27 01:39:59;;;;;;;14.52;6.88;;;12.50;99.90;;;;;;5036029;28;20124;-63
2022/10/27 01:42:44;;;;;;;17.13;7.47;;;12.50;99.90;;;;;;5037262;28;20486;-63
2022/10/27 01:45:13;;;;;;;13.40;7.32;;;12.50;99.90;;;;;;5037245;28;20390;-63
2022/10/27 01:47:40;;;;;;;20.58;8.07;;;12.50;99.90;;;;;;5019374;28;20077;-63
2022/10/27 01:50:07;;;;;;;15.32;7.68;;;12.50;99.90;;;;;;5036946;28;20095;-63
2022/10/27 01:52:48;;;;;;;16.95;7.68;;;12.40;99.90;;;;;;5054432;28;20505;-63
2022/10/27 01:55:19;;;;;;;16.45;8.10;;;12.40;99.90;;;;;;5036272;28;20045;-63
2022/10/27 01:58:09;;;;;;;15.65;8.15;;;12.40;99.90;;;;;;5053250;28;20041;-63
2022/10/27 02:01:01;;;;;;;14.60;8.77;;;12.40;99.90;;;;;;5032568;28;20041;-63
2022/10/27 02:03:55;;;;;;;14.18;8.48;;;12.40;99.90;;;;;;5053300;28;20505;-63
2022/10/27 02:06:41;;;;;;;19.40;10.27;;;12.30;99.90;;;;;;5001452;28;20175;-63
2022/10/27 02:09:16;;;;;;;15.38;8.82;;;12.30;99.90;;;;;;5019088;28;20041;-63
2022/10/27 02:11:45;;;;;;;16.65;9.95;;;12.30;99.90;;;;;;5054309;28;20398;-63
2022/10/27 02:14:11;;;;;;;21.20;11.18;;;12.30;99.90;;;;;;5035858;28;20044;-63
2022/10/27 02:16:41;;;;;;;19.33;11.85;;;12.30;99.90;;;;;;5036091;28;20072;-63
2022/10/27 02:19:14;;;;;;;20.83;12.68;;;12.30;99.90;;;;;;5036268;28;20079;-63
2022/10/27 02:21:41;;;;;;;23.13;13.05;;;12.30;99.90;;;;;;5034793;28;20061;-63
2022/10/27 02:24:07;;;;;;;17.92;12.45;;;12.30;99.90;;;;;;5036034;28;20537;-63
2022/10/27 02:26:42;;;;;;;18.00;12.77;;;12.40;99.90;;;;;;5053973;28;20116;-63
2022/10/27 02:29:18;;;;;;;19.23;12.25;;;12.40;99.90;;;;;;5018797;28;20040;-63
2022/10/27 02:31:47;;;;;;;20.17;13.13;;;12.40;99.90;;;;;;5035786;28;20048;-63
2022/10/27 02:34:15;;;;;;;23.50;12.25;;;12.40;99.90;;;;;;5054217;28;20470;-63
2022/10/27 02:36:40;;;;;;;17.20;12.35;;;12.40;99.90;;;;;;5052421;28;20485;-63
2022/10/27 02:39:06;;;;;;;18.63;12.93;;;12.50;99.90;;;;;;5019264;28;20086;-63
2022/10/27 02:41:32;;;;;;;18.10;11.80;;;12.50;99.90;;;;;;5053772;28;20040;-63
2022/10/27 02:43:57;;;;;;;19.75;12.95;;;12.50;99.90;;;;;;5052865;28;20132;-63
2022/10/27 02:46:23;;;;;;;18.27;11.88;;;12.50;99.90;;;;;;5053735;28;20045;-63
2022/10/27 02:48:49;;;;;;;19.73;12.63;;;12.50;99.90;;;;;;5053183;28;20552;-63
2022/10/27 02:51:14;;;;;;;19.20;12.75;;;12.50;99.90;;;;;;5035122;28;20049;-63
2022/10/27 02:53:40;;;;;;;19.55;13.75;;;12.60;99.90;;;;;;5035879;28;20393;-63
2022/10/27 02:56:07;;;;;;;20.00;13.18;;;12.60;99.90;;;;;;5053288;28;20040;-63
2022/10/27 02:58:34;;;;;;;19.98;12.90;;;12.60;99.90;;;;;;5034825;28;20052;-63
2022/10/27 03:00:59;;;;;;;21.13;15.00;;;12.60;99.90;;;;;;5053137;28;20123;-63
2022/10/27 03:03:25;;;;;;;25.23;13.35;;;12.60;99.90;;;;;;5052711;28;20132;-63
2022/10/27 03:05:51;;;;;;;22.90;12.23;;;12.70;99.90;;;;;;5052439;28;20036;-63
2022/10/27 03:08:17;;;;;;;20.10;12.20;;;12.70;99.90;;;;;;5053355;28;20039;-63
2022/10/27 03:10:43;;;;;;;22.92;13.05;;;12.70;99.90;;;;;;5017784;28;20816;-63
2022/10/27 03:13:09;;;;;;;20.88;13.40;;;12.80;99.90;;;;;;5031662;28;20401;-63
2022/10/27 03:15:35;;;;;;;21.70;14.18;;;12.80;99.90;;;;;;5032890;28;20041;-63
2022/10/27 03:18:00;;;;;;;21.05;12.73;;;12.80;99.90;;;;;;5032468;28;20069;-63
2022/10/27 03:20:26;;;;;;;19.20;13.27;;;12.80;99.90;;;;;;5015693;28;20371;-63
2022/10/27 03:22:52;;;;;;;18.40;12.82;;;12.90;99.90;;;;;;5032407;28;20360;-63
2022/10/27 03:25:17;;;;;;;22.42;14.77;;;12.90;99.90;;;;;;5014421;28;20115;-63
2022/10/27 03:27:44;;;;;;;18.83;13.07;;;12.90;99.90;;;;;;5003417;28;20033;-63
2022/10/27 03:30:13;;;;;;;18.30;12.35;;;13.00;99.90;;;;;;5034727;28;20037;-63
2022/10/27 03:32:39;;;;;;;17.95;12.02;;;13.00;99.90;;;;;;5051872;28;20047;-63
2022/10/27 03:35:05;;;;;;;23.35;12.93;;;13.00;99.90;;;;;;5034806;28;20056;-63
2022/10/27 03:37:31;;;;;;;17.58;11.75;;;13.10;99.90;;;;;;5034896;28;20049;-63
2022/10/27 03:39:57;;;;;;;18.23;11.35;;;13.10;99.90;;;;;;5033836;28;20052;-63
2022/10/27 03:42:22;;;;;;;16.98;12.20;;;13.10;99.90;;;;;;5052415;28;20048;-63
2022/10/27 03:44:48;;;;;;;24.70;13.05;;;13.20;99.90;;;;;;5034181;28;20048;-63
2022/10/27 03:47:14;;;;;;;18.70;11.73;;;13.20;99.90;;;;;;5052017;28;20033;-63
2022/10/27 03:49:39;;;;;;;16.50;11.25;;;13.20;99.90;;;;;;5052149;28;20041;-63
2022/10/27 03:52:05;;;;;;;18.75;11.25;;;13.20;99.90;;;;;;5052000;28;20076;-63
2022/10/27 03:54:31;;;;;;;16.80;12.55;;;13.20;99.90;;;;;;5033791;28;20041;-63
2022/10/27 03:56:57;;;;;;;20.92;13.45;;;13.20;99.90;;;;;;5033856;28;20042;-63
2022/10/27 03:59:23;;;;;;;17.70;12.50;;;13.20;99.90;;;;;;5015172;28;20099;-63
2022/10/27 04:01:49;;;;;;;17.55;11.02;;;13.20;99.90;;;;;;4997254;28;20093;-63
2022/10/27 04:04:14;;;;;;;20.17;13.15;;;13.20;99.90;;;;;;5014840;28;20529;-63
2022/10/27 04:06:40;;;;;;;18.20;11.20;;;13.20;99.90;;;;;;5014038;28;20045;-63
2022/10/27 04:09:06;;;;;;;18.42;12.63;;;13.20;99.90;;;;;;5014245;28;20037;-63
2022/10/27 04:11:31;;;;;;;18.55;11.75;;;13.20;99.90;;;;;;5015010;28;20039;-64
2022/10/27 04:13:57;;;;;;;18.42;12.30;;;13.10;99.90;;;;;;5032021;28;20477;-63
2022/10/27 04:16:23;;;;;;;20.40;12.00;;;13.10;99.90;;;;;;5034713;28;20051;-63
2022/10/27 04:18:49;;;;;;;20.77;13.05;;;13.10;99.90;;;;;;5051365;28;20485;-63
2022/10/27 04:21:15;;;;;;;16.98;11.52;;;13.10;99.90;;;;;;5033539;28;20040;-64
2022/10/27 04:23:41;;;;;;;25.73;12.88;;;13.10;99.90;;;;;;5051744;28;20452;-63
2022/10/27 04:26:07;;;;;;;17.00;11.38;;;13.10;99.90;;;;;;5033877;28;20049;-64
2022/10/27 04:28:32;;;;;;;15.50;10.50;;;13.10;99.90;;;;;;5051336;28;20037;-64
2022/10/27 04:30:58;;;;;;;16.83;10.43;;;13.10;99.90;;;;;;5034199;28;20047;-64
2022/10/27 04:33:24;;;;;;;21.13;11.50;;;13.10;99.90;;;;;;5031068;28;20049;-64
2022/10/27 04:35:49;;;;;;;15.32;10.90;;;13.10;99.90;;;;;;5013353;28;20049;-64
2022/10/27 04:38:15;;;;;;;15.63;10.80;;;13.20;99.90;;;;;;5014332;28;20513;-64
2022/10/27 04:40:41;;;;;;;24.83;12.00;;;13.20;99.90;;;;;;5014089;28;20051;-64
2022/10/27 04:43:06;;;;;;;17.73;11.07;;;13.10;99.90;;;;;;5044888;28;20043;-64
2022/10/27 04:45:33;;;;;;;18.42;11.77;;;13.20;99.90;;;;;;5034280;28;20044;-64
2022/10/27 04:47:59;;;;;;;19.85;10.20;;;13.20;99.90;;;;;;5033782;28;20045;-64
2022/10/27 04:50:25;;;;;;;19.83;10.70;;;13.20;99.90;;;;;;5033239;28;20044;-64
2022/10/27 04:53:01;;;;;;;18.85;11.45;;;13.20;99.90;;;;;;5051223;28;20076;-64
2022/10/27 04:55:30;;;;;;;20.27;10.95;;;13.10;99.90;;;;;;5051911;28;20116;-63
2022/10/27 04:57:56;;;;;;;16.08;11.20;;;13.10;99.90;;;;;;5032801;28;20045;-64
2022/10/27 05:00:22;;;;;;;17.17;10.80;;;13.10;99.90;;;;;;5034217;28;20481;-64
2022/10/27 05:02:58;;;;;;;19.35;11.32;;;13.10;99.90;;;;;;5033602;28;20055;-64
2022/10/27 05:05:25;;;;;;;18.85;10.55;;;13.10;99.90;;;;;;5036014;28;20044;-63
2022/10/27 05:08:02;;;;;;;18.38;11.25;;;13.10;99.90;;;;;;5037591;28;20076;-64
2022/10/27 05:10:28;;;;;;;19.40;10.57;;;13.10;99.90;;;;;;5020496;28;20044;-64
2022/10/27 05:12:54;;;;;;;17.85;10.63;;;13.10;99.90;;;;;;5054849;28;20095;-63
2022/10/27 05:15:20;;;;;;;18.35;11.00;;;13.10;99.90;;;;;;5021522;28;20037;-64
2022/10/27 05:17:46;;;;;;;17.65;11.23;;;13.10;99.90;;;;;;5054216;28;20398;-64
2022/10/27 05:20:12;;;;;;;19.45;10.80;;;13.20;99.90;;;;;;5055604;28;20448;-64
2022/10/27 05:22:38;;;;;;;19.02;10.60;;;13.20;99.90;;;;;;5024713;28;20046;-64
2022/10/27 05:25:05;;;;;;;15.52;10.50;;;13.20;99.90;;;;;;5034177;28;20041;-64
2022/10/27 05:27:31;;;;;;;21.40;12.13;;;13.20;99.90;;;;;;5001181;28;20049;-63
2022/10/27 05:29:57;;;;;;;14.88;10.18;;;13.30;99.90;;;;;;5017375;28;20042;-63
2022/10/27 05:32:23;;;;;;;14.68;9.88;;;13.30;99.90;;;;;;5016876;28;20041;-64
2022/10/27 05:34:48;;;;;;;16.00;10.68;;;13.30;99.90;;;;;;5016996;28;20512;-64
2022/10/27 05:37:14;;;;;;;21.17;11.13;;;13.30;99.90;;;;;;5034636;28;20386;-64
2022/10/27 05:39:40;;;;;;;16.75;10.23;;;13.30;99.90;;;;;;5016359;28;20029;-64
2022/10/27 05:42:05;;;;;;;16.80;9.73;;;13.30;99.90;;;;;;5017259;28;20453;-64
2022/10/27 05:44:31;;;;;;;16.10;10.32;;;13.40;99.90;;;;;;5017595;28;20048;-64
2022/10/27 05:46:57;;;;;;;13.55;8.80;;;13.40;99.90;;;;;;5015988;28;20058;-64
2022/10/27 05:49:22;;;;;;;16.33;8.70;;;13.40;99.90;;;;;;5034799;28;20044;-64
2022/10/27 05:51:49;;;;;;;19.08;9.57;;;13.40;99.90;;;;;;5034314;28;20044;-64
2022/10/27 05:54:15;;;;;;;14.70;9.57;;;13.50;99.90;;;;;;5000177;28;20091;-64
2022/10/27 05:56:41;;;;;;;16.33;9.02;;;13.50;99.90;;;;;;5017169;28;20037;-64
2022/10/27 05:59:06;;;;;;;16.55;9.85;;;13.50;99.90;;;;;;5034511;28;20501;-64
2022/10/27 06:01:32;;;;;;;16.35;8.40;;;13.50;99.90;;;;;;5033685;28;20116;-64
2022/10/27 06:03:58;;;;;;;19.52;8.73;;;13.60;99.90;;;;;;5016587;28;20052;-64
2022/10/27 06:06:23;;;;;;;13.50;9.63;;;13.60;99.90;;;;;;5033971;28;20038;-64
2022/10/27 06:08:49;;;;;;;16.52;8.40;;;13.60;99.90;;;;;;5016359;28;20044;-64
2022/10/27 06:11:14;;;;;;;13.77;8.52;;;13.60;99.90;;;;;;5000368;28;20037;-64
2022/10/27 06:13:40;;;;;;;12.95;7.97;;;13.70;99.90;;;;;;4999283;28;20037;-63
2022/10/27 06:16:06;;;;;;;13.93;8.70;;;13.70;99.90;;;;;;4999883;28;20148;-63
2022/10/27 06:18:32;;;;;;;13.35;8.57;;;13.70;99.90;;;;;;5016707;28;20056;-64
2022/10/27 06:20:57;;;;;;;12.60;8.30;;;13.70;99.90;;;;;;5015465;28;20124;-64
2022/10/27 06:23:23;;;;;;;13.50;8.13;;;13.70;99.90;;;;;;5034724;28;20140;-64
2022/10/27 06:25:48;;;;;;;12.65;7.90;;;13.80;99.90;;;;;;5019763;28;20094;-64
2022/10/27 06:28:14;;;;;;;14.95;8.52;;;13.80;99.90;;;;;;5035427;28;20039;-64
2022/10/27 06:30:40;;;;;;;12.05;7.32;;;13.80;99.90;;;;;;5035803;28;20128;-64
2022/10/27 06:33:05;;;;;;;12.60;7.13;;;13.80;99.90;;;;;;5036049;28;20037;-64
2022/10/27 06:35:31;;;;;;;13.95;7.43;;;13.80;99.90;;;;;;5053565;28;20037;-64
2022/10/27 06:37:57;;;;;;;11.82;7.28;;;13.80;99.90;;;;;;5035605;28;20375;-64
2022/10/27 06:40:22;;;;;;;15.00;8.43;;;13.90;99.90;;;;;;5053957;28;20072;-64
2022/10/27 06:42:52;;;;;;;13.00;7.40;;;13.90;99.90;;;;;;5052485;28;20041;-64
2022/10/27 06:45:18;;;;;;;14.25;7.90;;;13.90;99.90;;;;;;5017679;28;20047;-64
2022/10/27 06:47:44;;;;;;;13.68;7.78;;;13.90;99.90;;;;;;5031806;28;20485;-64
2022/10/27 06:50:11;;;;;;;12.63;7.45;;;13.90;99.90;;;;;;5033759;28;20040;-64
2022/10/27 06:52:37;;;;;;;12.65;8.13;;;13.90;99.90;;;;;;5034779;28;20037;-64
2022/10/27 06:55:04;;;;;;;18.58;7.97;;;13.90;99.90;;;;;;5052682;28;20106;-64
2022/10/27 06:57:40;;;;;;;14.93;7.85;;;13.90;99.90;;;;;;5017909;28;20051;-64
2022/10/27 07:00:07;;;;;;;17.67;8.65;;;13.90;99.90;;;;;;5035574;28;20068;-64
2022/10/27 07:02:32;;;;;;;13.38;8.88;;;13.90;99.90;;;;;;5051945;28;20547;-64
2022/10/27 07:04:58;;;;;;;13.55;9.02;;;13.90;99.90;;;;;;5035220;28;20045;-64
2022/10/27 07:07:23;;;;;;;14.82;9.15;;;13.90;99.90;;;;;;5034833;28;20120;-64
2022/10/27 07:09:49;;;;;;;12.77;8.57;;;13.90;99.90;;;;;;5050710;28;20456;-64
2022/10/27 07:12:14;;;;;;;15.73;9.32;;;13.90;99.90;;;;;;5053097;28;20044;-64
2022/10/27 07:14:40;;;;;;;14.27;8.77;;;13.90;99.90;;;;;;5035291;28;20041;-64
2022/10/27 07:17:06;;;;;;;17.85;10.90;;;13.90;99.90;;;;;;5034233;28;20044;-64
2022/10/27 07:19:31;;;;;;;20.40;10.35;;;13.90;99.90;;;;;;5035289;28;20068;-64
2022/10/27 07:21:57;;;;;;;13.90;8.77;;;13.90;99.90;;;;;;5027577;28;20406;-64
2022/10/27 07:24:22;;;;;;;14.65;8.77;;;13.80;99.90;;;;;;5014214;28;20065;-64
2022/10/27 07:26:48;;;;;;;16.30;9.80;;;13.80;99.90;;;;;;4997000;28;20029;-64
2022/10/27 07:29:14;;;;;;;12.82;9.48;;;13.80;99.90;;;;;;5033253;28;20040;-64
2022/10/27 07:31:43;;;;;;;14.60;9.45;;;13.90;99.90;;;;;;5024924;28;20042;-64
2022/10/27 07:34:09;;;;;;;14.05;9.48;;;13.80;99.90;;;;;;5013719;28;20045;-64
2022/10/27 07:36:34;;;;;;;13.10;10.25;;;13.90;99.90;;;;;;5015099;28;20053;-64
2022/10/27 07:39:00;;;;;;;15.32;9.23;;;13.90;99.90;;;;;;5032135;28;20049;-64
2022/10/27 07:41:26;;;;;;;13.50;8.52;;;13.90;99.90;;;;;;5008060;28;20068;-63
2022/10/27 07:43:51;;;;;;;13.27;7.80;;;13.90;99.90;;;;;;5010299;28;20045;-64
2022/10/27 07:46:17;;;;;;;15.82;9.48;;;13.90;99.90;;;;;;5010187;28;20188;-64
2022/10/27 07:48:43;;;;;;;15.25;9.13;;;14.00;99.90;;;;;;5029504;28;20044;-64
2022/10/27 07:51:08;;;;;;;12.50;8.25;;;14.00;99.90;;;;;;5029750;28;20560;-65
2022/10/27 07:53:34;;;;;;;11.80;7.28;;;14.00;99.90;;;;;;5028699;28;20041;-63
2022/10/27 07:56:00;;;;;;;16.90;8.10;;;14.10;99.90;;;;;;5029684;28;20037;-62
2022/10/27 07:58:25;;;;;;;13.48;7.50;;;14.10;99.90;;;;;;5009711;28;20053;-65
2022/10/27 08:00:51;;;;;;;13.80;7.68;;;14.10;99.90;;;;;;5014656;28;20179;-65
2022/10/27 08:03:19;;;;;;;13.48;7.00;;;14.20;99.90;;;;;;5014503;28;20166;-65
2022/10/27 08:05:45;;;;;;;12.48;6.95;;;14.20;99.90;;;;;;5023472;28;20159;-65
2022/10/27 08:08:11;;;;;;;11.20;7.90;;;14.20;99.90;;;;;;5011028;28;20120;-65
2022/10/27 08:10:39;;;;;;;10.13;6.82;;;14.20;99.90;;;;;;5011244;28;20044;-65
2022/10/27 08:13:06;;;;;;;10.63;6.95;;;14.30;99.90;;;;;;5028672;28;20052;-64
2022/10/27 08:15:32;;;;;;;12.68;6.63;;;14.30;99.90;;;;;;5029408;28;20437;-65
2022/10/27 08:18:00;;;;;;;10.57;6.53;;;14.30;99.90;;;;;;5010059;28;20486;-65
2022/10/27 08:20:30;;;;;;;11.25;6.60;;;14.30;99.90;;;;;;4994208;28;20081;-65
2022/10/27 08:23:04;;;;;;;11.00;6.47;;;14.30;99.90;;;;;;5024640;28;20052;-65
2022/10/27 08:25:30;;;;;;;8.82;5.50;;;14.40;99.90;;;;;;5025423;28;20124;-64
2022/10/27 08:27:57;;;;;;;13.10;6.82;;;14.40;99.90;;;;;;5013326;28;20047;-65
2022/10/27 08:30:25;;;;;;;13.35;6.32;;;14.40;99.90;;;;;;5031139;28;20036;-65
2022/10/27 08:32:58;;;;;;;12.95;6.32;;;14.50;99.90;;;;;;5030192;28;20037;-64
2022/10/27 08:35:25;;;;;;;9.43;5.90;;;14.50;99.90;;;;;;5013548;28;20052;-65
2022/10/27 08:38:03;;;;;;;10.18;5.40;;;14.60;99.90;;;;;;5013202;28;20041;-65
2022/10/27 08:40:55;;;;;;;8.32;5.13;;;14.60;99.90;;;;;;5033841;28;20428;-64
2022/10/27 08:43:43;;;;;;;14.02;5.57;;;14.70;99.90;;;;;;5049016;28;20159;-64
2022/10/27 08:46:15;;;;;;;7.88;5.30;;;14.80;99.90;;;;;;5016755;28;20489;-63
2022/10/27 08:48:43;;;;;;;10.13;4.70;;;14.80;99.90;;;;;;5035398;28;20124;-63
2022/10/27 08:51:15;;;;;;;9.70;5.13;;;14.90;99.90;;;;;;5036943;28;20498;-63
2022/10/27 08:53:42;;;;;;;8.13;4.28;;;15.00;99.90;;;;;;5020725;28;20045;-63
2022/10/27 08:56:11;;;;;;;9.45;4.32;;;15.10;99.90;;;;;;5054278;28;20045;-62
2022/10/27 08:58:43;;;;;;;12.60;4.60;;;15.20;99.90;;;;;;5037718;28;20140;-63
2022/10/27 09:01:17;;;;;;;8.65;5.05;;;15.30;99.90;;;;;;5036699;28;20091;-63
2022/10/27 09:04:02;;;;;;;9.70;4.90;;;15.40;99.90;;;;;;5030277;28;20081;-63
2022/10/27 09:06:52;;;;;;;12.55;5.15;;;15.50;99.90;;;;;;5036803;28;20043;-63
2022/10/27 09:09:41;;;;;;;6.93;4.10;;;15.60;99.90;;;;;;5036814;28;20045;-63
2022/10/27 09:12:19;;;;;;;9.85;5.03;;;15.70;99.90;;;;;;5028350;28;20037;-63
2022/10/27 09:15:20;;;;;;;12.35;4.80;;;15.80;99.90;;;;;;5066670;28;20088;-62
2022/10/27 09:17:55;;;;;;;7.53;3.83;;;15.90;99.90;;;;;;5043860;28;20133;-63
2022/10/27 09:20:43;;;;;;;12.10;4.88;;;15.90;99.90;;;;;;5056034;28;20051;-63
2022/10/27 09:23:15;;;;;;;12.30;5.75;;;15.90;99.90;;;;;;5036435;28;20056;-63
2022/10/27 09:25:42;;;;;;;8.00;4.25;;;16.00;99.90;;;;;;5055038;28;20037;-62
2022/10/27 09:28:33;;;;;;;7.78;4.32;;;16.00;99.90;;;;;;5054099;28;20071;-62
2022/10/27 09:31:02;;;;;;;9.32;3.67;;;16.00;99.90;;;;;;5036740;28;20485;-63
2022/10/27 09:33:32;;;;;;;10.82;4.18;;;16.10;99.90;;;;;;5020991;28;20029;-63
2022/10/27 09:36:00;;;;;;;7.93;3.92;;;16.10;99.90;;;;;;5054611;28;20072;-65
2022/10/27 09:38:27;;;;;;;8.23;4.15;;;16.10;99.90;;;;;;5036559;28;20508;-63
2022/10/27 09:40:53;;;;;;;9.27;4.00;;;16.20;99.90;;;;;;5020351;28;20059;-62
2022/10/27 09:43:22;;;;;;;10.57;3.85;;;16.20;99.90;;;;;;5055094;28;20049;-62
2022/10/27 09:46:05;;;;;;;9.60;4.43;;;16.30;99.90;;;;;;5036176;28;20162;-62
2022/10/27 09:48:33;;;;;;;8.50;3.85;;;16.30;99.90;;;;;;5033469;28;20076;-62
2022/10/27 09:51:05;;;;;;;8.70;3.70;;;16.30;99.90;;;;;;5043688;28;20041;-62
2022/10/27 09:53:37;;;;;;;9.75;4.03;;;16.30;99.90;;;;;;5032600;28;20056;-62
2022/10/27 09:56:04;;;;;;;6.95;3.28;;;16.30;99.90;;;;;;5034661;28;20042;-62
2022/10/27 09:58:30;;;;;;;8.43;3.97;;;16.30;99.90;;;;;;5052442;28;20049;-62
2022/10/27 10:01:00;;;;;;;7.53;3.95;;;16.30;99.90;;;;;;5033613;28;20041;-62
2022/10/27 10:03:26;;;;;;;11.40;3.95;;;16.30;99.90;;;;;;5020368;28;20044;-62
2022/10/27 10:06:00;;;;;;;8.05;3.90;;;16.30;99.90;;;;;;5051911;28;20048;-62
2022/10/27 10:08:32;;;;;;;7.45;3.55;;;16.30;99.90;;;;;;5033121;28;20130;-62
2022/10/27 10:10:59;;;;;;;8.85;4.30;;;16.30;99.90;;;;;;5034782;28;20072;-62
2022/10/27 10:13:31;;;;;;;9.10;4.00;;;16.40;99.90;;;;;;5018919;28;20041;-62
2022/10/27 10:16:10;;;;;;;10.77;3.80;;;16.40;99.90;;;;;;5045103;28;20037;-62
2022/10/27 10:18:38;;;;;;;9.48;4.20;;;16.40;99.90;;;;;;5032086;28;20155;-62
2022/10/27 10:21:05;;;;;;;8.98;4.10;;;16.40;99.90;;;;;;5050275;28;20162;-62
2022/10/27 10:23:55;;;;;;;8.80;4.25;;;16.40;99.90;;;;;;5026466;28;20532;-62
2022/10/27 10:26:26;;;;;;;10.30;4.25;;;16.50;99.90;;;;;;5049171;28;20052;-62
2022/10/27 10:29:12;;;;;;;8.90;4.65;;;16.50;99.90;;;;;;5030427;28;20038;-62
2022/10/27 10:31:38;;;;;;;10.13;4.65;;;16.50;99.90;;;;;;5053653;28;20453;-61
2022/10/27 10:34:28;;;;;;;8.90;3.60;;;16.60;99.90;;;;;;5030925;28;20045;-61
2022/10/27 10:36:53;;;;;;;9.98;4.07;;;16.60;99.90;;;;;;5026745;28;20052;-61
2022/10/27 10:39:28;;;;;;;9.23;3.83;;;16.60;99.90;;;;;;5052530;28;20041;-61
2022/10/27 10:42:09;;;;;;;10.45;4.40;;;16.70;99.90;;;;;;5034485;28;20483;-61
2022/10/27 10:44:35;;;;;;;10.88;4.07;;;16.70;99.90;;;;;;5032138;28;20045;-61
2022/10/27 10:47:01;;;;;;;12.50;4.15;;;16.80;99.90;;;;;;5052334;28;20076;-61
2022/10/27 10:49:30;;;;;;;8.00;3.22;;;16.90;99.90;;;;;;5052757;28;20075;-61
2022/10/27 10:52:00;;;;;;;5.90;2.80;;;16.90;99.90;;;;;;5032339;28;20068;-61
2022/10/27 10:54:39;;;;;;;7.38;3.00;;;17.00;99.90;;;;;;5033903;28;20428;-61
2022/10/27 10:57:19;;;;;;;10.40;3.05;;;17.00;99.90;;;;;;5013874;28;21042;-60
2022/10/27 10:59:45;;;;;;;10.15;3.40;;;17.10;99.90;;;;;;5032676;28;20038;-61
2022/10/27 11:02:29;;;;;;;6.82;3.15;;;17.30;99.90;;;;;;5035820;28;20069;-61
2022/10/27 11:05:16;;;;;;;7.53;3.05;;;17.40;99.90;;;;;;5031479;28;20037;-60
2022/10/27 11:07:46;;;;;;;7.97;3.10;;;17.50;99.90;;;;;;5032910;28;20129;-61
2022/10/27 11:10:15;;;;;;;8.57;2.60;;;17.70;99.90;;;;;;5033019;28;20056;-60
2022/10/27 11:12:52;;;;;;;10.00;2.90;;;17.80;99.90;;;;;;5015284;28;20051;-61
2022/10/27 11:15:34;;;;;;;8.82;2.75;;;17.80;99.90;;;;;;5033377;28;20498;-61
2022/10/27 11:18:20;;;;;;;5.82;2.15;;;17.90;99.90;;;;;;5038444;28;20047;-61
2022/10/27 11:21:11;;;;;;;5.75;2.53;;;18.00;99.90;;;;;;5052975;28;20083;-61
2022/10/27 11:24:38;;;;;;;6.35;2.40;;;18.00;99.90;;;;;;5023201;28;20048;-61
2022/10/27 11:27:17;;;;;;;8.02;2.65;;;18.00;99.90;;;;;;4992072;28;20042;-61
2022/10/27 11:29:53;;;;;;;6.45;2.50;;;18.00;99.90;;;;;;5032875;28;20041;-61
2022/10/27 11:32:29;;;;;;;7.18;2.47;;;18.10;99.90;;;;;;5049491;28;20053;-62
2022/10/27 11:35:12;;;;;;;6.78;2.45;;;18.10;99.90;;;;;;5034560;28;20037;-62
2022/10/27 11:37:47;;;;;;;9.52;2.40;;;18.20;99.90;;;;;;5034143;28;20478;-61
2022/10/27 11:40:42;;;;;;;7.88;2.40;;;18.30;99.90;;;;;;5035008;28;20116;-62
2022/10/27 11:43:29;;;;;;;4.63;1.90;;;18.40;99.90;;;;;;5034512;28;20041;-62
2022/10/27 11:46:18;;;;;;;8.30;2.35;;;18.40;99.90;;;;;;5033463;28;20037;-62
2022/10/27 11:48:51;;;;;;;5.90;2.05;;;18.40;99.90;;;;;;5034372;28;20047;-62
2022/10/27 11:51:19;;;;;;;8.65;2.30;;;18.50;99.90;;;;;;5017910;28;20437;-62
2022/10/27 11:53:45;;;;;;;5.13;2.47;;;18.50;99.90;;;;;;5034385;28;20094;-62
2022/10/27 11:56:27;;;;;;;5.05;2.20;;;18.60;99.90;;;;;;5034640;28;20401;-62
2022/10/27 11:59:02;;;;;;;6.68;2.60;;;18.60;99.90;;;;;;5033249;28;20048;-62
2022/10/27 12:01:52;;;;;;;4.43;2.10;;;18.70;99.90;;;;;;5034711;28;20045;-62
2022/10/27 12:04:28;;;;;;;10.55;3.42;;;18.70;99.90;;;;;;5034500;28;20055;-62
2022/10/27 12:07:07;;;;;;;4.93;2.00;;;18.70;99.90;;;;;;5051166;28;20045;-62
2022/10/27 12:09:56;;;;;;;7.40;2.60;;;18.70;99.90;;;;;;5052185;28;20072;-62
2022/10/27 12:12:35;;;;;;;7.10;2.53;;;18.80;99.90;;;;;;5033476;28;20052;-62
2022/10/27 12:15:04;;;;;;;5.75;2.10;;;18.80;99.90;;;;;;5034275;28;20049;-62
2022/10/27 12:17:44;;;;;;;5.68;2.33;;;18.90;99.90;;;;;;5052557;28;20106;-62
2022/10/27 12:20:16;;;;;;;7.15;2.05;;;19.00;99.90;;;;;;5033761;28;20481;-62
2022/10/27 12:22:54;;;;;;;8.80;2.20;;;19.00;99.90;;;;;;5033861;28;20111;-62
2022/10/27 12:25:40;;;;;;;5.32;2.25;;;19.00;99.90;;;;;;5034884;28;20096;-62
2022/10/27 12:28:11;;;;;;;6.53;2.17;;;19.00;99.90;;;;;;5050133;28;20043;-62
2022/10/27 12:30:40;;;;;;;4.32;1.63;;;19.00;99.90;;;;;;5050881;28;20083;-62
2022/10/27 12:33:33;;;;;;;7.00;1.88;;;19.00;99.90;;;;;;5041316;28;20040;-62
2022/10/27 12:36:44;;;;;;;4.32;1.77;;;19.00;99.90;;;;;;5011597;28;20075;-62
2022/10/27 12:39:13;;;;;;;5.13;1.85;;;19.00;99.90;;;;;;5050170;28;20045;-62
2022/10/27 12:42:04;;;;;;;6.43;1.73;;;18.90;99.90;;;;;;5032083;28;20041;-62
2022/10/27 12:44:51;;;;;;;5.70;1.75;;;18.90;99.90;;;;;;5050811;28;20394;-62
2022/10/27 12:47:26;;;;;;;4.97;1.80;;;18.90;99.90;;;;;;5032556;28;20136;-62
2022/10/27 12:50:24;;;;;;;;;;;18.90;99.90;;;;;;5032155;28;20493;-62
2022/10/27 12:52:59;;;;;;;5.13;1.98;;;18.90;99.90;;;;;;4981334;28;19917;-62
2022/10/27 12:55:45;;;;;;;5.85;1.73;;;18.90;99.90;;;;;;5013395;28;20084;-62